ADDS METAR Data INFO
IDs: Format: Raw Decoded Include TAF

Data at: 1016 UTC 14 Dec 2017

KCDR 140953Z AUTO 30013KT 10SM BKN060 OVC085 03/M06 A3011 RMK AO2 SLP215 T00281056
KCDR 140853Z AUTO 30014G20KT 10SM FEW040 OVC050 03/M06 A3012 RMK AO2 SLP216 T00331056 55002
KCDR 140753Z AUTO 30010KT 10SM FEW041 OVC050 03/M04 A3011 RMK AO2 PK WND 30026/0714 SLP215 T00281044
KCDR 140653Z AUTO 29013KT 10SM OVC075 02/M05 A3011 RMK AO2 SLP214 T00221050 401001017
KCDR 140553Z AUTO 24003KT 10SM OVC070 01/M05 A3013 RMK AO2 SLP222 T00111050 10050 21017 51011
KCDR 140453Z AUTO 28004KT 10SM BKN055 OVC070 02/M06 A3012 RMK AO2 SLP223 T00171056
KCDR 140353Z AUTO 23007KT 10SM BKN075 OVC100 00/M06 A3011 RMK AO2 SLP222 T00001061
KCDR 140253Z AUTO 00000KT 10SM CLR M01/M06 A3009 RMK AO2 SLP219 T10061061 51012
KCDR 140153Z AUTO 00000KT 10SM CLR 01/M06 A3008 RMK AO2 SLP213 T00111056
KCDR 140053Z AUTO 36007KT 10SM CLR 04/M04 A3007 RMK AO2 SLP204 T00391044
KCDR 132353Z AUTO 01007KT 10SM CLR 05/M05 A3005 RMK AO2 SLP198 T00501050 10100 20050 53014
KCDR 132253Z AUTO 32013KT 10SM CLR 06/M07 A3003 RMK AO2 SLP186 T00611072
KCDR 132153Z AUTO 31017G23KT 10SM FEW055 07/M07 A3002 RMK AO2 PK WND 31027/2141 SLP178 T00721072
KCDR 132053Z AUTO 31017G25KT 10SM CLR 09/M08 A3001 RMK AO2 PK WND 32026/2041 SLP169 T00891078 56021
KCDR 131953Z AUTO 32016G24KT 10SM CLR 09/M08 A3001 RMK AO2 PK WND 32028/1908 SLP170 T00941083
KCDR 131853Z AUTO 31020G28KT 10SM CLR 09/M08 A3004 RMK AO2 PK WND 30032/1754 SLP179 T00891083
KCDR 131753Z AUTO 31024G31KT 10SM SCT060 08/M08 A3008 RMK AO2 PK WND 31033/1713 SLP194 T00831083 10083 20028 50003
KCDR 131653Z AUTO 30022G31KT 10SM OVC050 07/M08 A3009 RMK AO2 PK WND 31031/1632 SLP204 T00671083
KCDR 131553Z AUTO 30021G27KT 10SM SCT060 06/M09 A3007 RMK AO2 PK WND 29027/1547 SLP200 T00561089
KCDR 131453Z AUTO 28016KT 10SM CLR 04/M09 A3007 RMK AO2 PK WND 30029/1428 SLP199 T00391094 51007
KCDR 131353Z AUTO 30021G25KT 10SM CLR 04/M09 A3006 RMK AO2 PK WND 30029/1315 SLP198 T00441094
KCDR 131253Z AUTO 30018G24KT 10SM OVC060 04/M09 A3005 RMK AO2 SLP196 T00441094
KCDR 131153Z AUTO 29014KT 10SM CLR 03/M09 A3004 RMK AO2 SLP188 T00331094 10106 20033 51016
KCDR 131053Z AUTO 29013KT 10SM CLR 06/M09 A3004 RMK AO2 SLP178 T00561089
KCDR 130953Z AUTO 29014KT 10SM CLR 07/M09 A3001 RMK AO2 SLP162 T00721094
KCDR 130853Z AUTO 28017KT 10SM SCT120 09/M11 A2999 RMK AO2 SLP152 T00941106 53014
KCDR 130753Z AUTO 28018KT 10SM FEW110 09/M11 A2996 RMK AO2 PK WND 28026/0739 SLP144 T00891111
KCDR 130653Z AUTO 29021G29KT 10SM CLR 10/M11 A2995 RMK AO2 PK WND 28030/0616 SLP143 T01001111 401891100
KCDR 130553Z AUTO 28018G25KT 10SM CLR 09/M09 A2994 RMK AO2 SLP148 T00891089 10106 20011 55000
KCDR 130453Z AUTO 28012KT 10SM CLR 06/M07 A2994 RMK AO2 SLP154 T00561072
KCDR 130353Z AUTO 31007KT 10SM CLR 06/M08 A2995 RMK AO2 SLP160 T00611078
KCDR 130253Z AUTO 30006KT 10SM CLR 07/M07 A2995 RMK AO2 SLP163 T00721072 56007
KCDR 130153Z AUTO 29006KT 10SM CLR 05/M08 A2995 RMK AO2 SLP172 T00501083
KCDR 130053Z AUTO 00000KT 10SM CLR 06/M08 A2996 RMK AO2 SLP175 T00561078
KCDR 122353Z AUTO 23006KT 10SM CLR 09/M07 A2997 RMK AO2 SLP176 T00941072 10189 20094 56016
KCDR 122253Z AUTO 24004KT 10SM CLR 14/M07 A2998 RMK AO2 SLP178 T01441072